sensor_id;sensor_type;location;lat;lon;timestamp;P1;durP1;ratioP1;P2;durP2;ratioP2
84307;SDS011;74486;52.070;5.128;2024-01-30T00:01:15;21.20;;;11.95;;
84307;SDS011;74486;52.070;5.128;2024-01-30T00:03:41;22.30;;;12.30;;
84307;SDS011;74486;52.070;5.128;2024-01-30T00:06:06;22.60;;;12.10;;
84307;SDS011;74486;52.070;5.128;2024-01-30T00:08:32;20.45;;;10.70;;
84307;SDS011;74486;52.070;5.128;2024-01-30T00:10:58;23.38;;;10.98;;
84307;SDS011;74486;52.070;5.128;2024-01-30T00:13:23;20.60;;;11.45;;
84307;SDS011;74486;52.070;5.128;2024-01-30T00:15:50;19.35;;;10.52;;
84307;SDS011;74486;52.070;5.128;2024-01-30T00:18:15;19.38;;;10.82;;
84307;SDS011;74486;52.070;5.128;2024-01-30T00:20:41;19.92;;;10.40;;
84307;SDS011;74486;52.070;5.128;2024-01-30T00:23:06;19.83;;;10.60;;
84307;SDS011;74486;52.070;5.128;2024-01-30T00:25:32;22.65;;;11.00;;
84307;SDS011;74486;52.070;5.128;2024-01-30T00:27:57;20.35;;;10.25;;
84307;SDS011;74486;52.070;5.128;2024-01-30T00:30:23;21.17;;;10.88;;
84307;SDS011;74486;52.070;5.128;2024-01-30T00:32:49;20.25;;;11.20;;
84307;SDS011;74486;52.070;5.128;2024-01-30T00:35:15;20.50;;;11.00;;
84307;SDS011;74486;52.070;5.128;2024-01-30T00:37:40;18.00;;;10.63;;
84307;SDS011;74486;52.070;5.128;2024-01-30T00:40:06;19.88;;;11.43;;
84307;SDS011;74486;52.070;5.128;2024-01-30T00:42:32;20.88;;;10.90;;
84307;SDS011;74486;52.070;5.128;2024-01-30T00:44:58;19.27;;;10.68;;
84307;SDS011;74486;52.070;5.128;2024-01-30T00:47:23;24.45;;;12.18;;
84307;SDS011;74486;52.070;5.128;2024-01-30T00:49:50;19.58;;;11.50;;
84307;SDS011;74486;52.070;5.128;2024-01-30T00:52:16;20.45;;;12.00;;
84307;SDS011;74486;52.070;5.128;2024-01-30T00:54:41;22.15;;;11.60;;
84307;SDS011;74486;52.070;5.128;2024-01-30T00:57:07;23.02;;;11.82;;
84307;SDS011;74486;52.070;5.128;2024-01-30T00:59:32;21.17;;;10.40;;
84307;SDS011;74486;52.070;5.128;2024-01-30T01:01:58;22.10;;;11.05;;
84307;SDS011;74486;52.070;5.128;2024-01-30T01:04:23;21.88;;;12.00;;
84307;SDS011;74486;52.070;5.128;2024-01-30T01:06:50;21.25;;;11.25;;
84307;SDS011;74486;52.070;5.128;2024-01-30T01:09:16;21.00;;;11.07;;
84307;SDS011;74486;52.070;5.128;2024-01-30T01:11:41;21.58;;;11.52;;
84307;SDS011;74486;52.070;5.128;2024-01-30T01:14:06;18.20;;;11.27;;
84307;SDS011;74486;52.070;5.128;2024-01-30T01:16:32;20.42;;;10.55;;
84307;SDS011;74486;52.070;5.128;2024-01-30T01:18:58;20.73;;;10.63;;
84307;SDS011;74486;52.070;5.128;2024-01-30T01:21:23;23.25;;;11.85;;
84307;SDS011;74486;52.070;5.128;2024-01-30T01:23:50;21.50;;;11.13;;
84307;SDS011;74486;52.070;5.128;2024-01-30T01:26:16;18.63;;;10.90;;
84307;SDS011;74486;52.070;5.128;2024-01-30T01:28:41;22.27;;;10.57;;
84307;SDS011;74486;52.070;5.128;2024-01-30T01:31:06;19.70;;;9.93;;
84307;SDS011;74486;52.070;5.128;2024-01-30T01:33:32;25.13;;;12.32;;
84307;SDS011;74486;52.070;5.128;2024-01-30T01:35:57;21.25;;;10.10;;
84307;SDS011;74486;52.070;5.128;2024-01-30T01:38:23;20.90;;;9.88;;
84307;SDS011;74486;52.070;5.128;2024-01-30T01:40:50;18.40;;;10.18;;
84307;SDS011;74486;52.070;5.128;2024-01-30T01:43:15;18.25;;;9.85;;
84307;SDS011;74486;52.070;5.128;2024-01-30T01:45:41;20.15;;;10.73;;
84307;SDS011;74486;52.070;5.128;2024-01-30T01:48:06;20.02;;;10.90;;
84307;SDS011;74486;52.070;5.128;2024-01-30T01:50:32;18.92;;;10.68;;
84307;SDS011;74486;52.070;5.128;2024-01-30T01:52:57;18.58;;;9.90;;
84307;SDS011;74486;52.070;5.128;2024-01-30T01:55:23;21.42;;;11.10;;
84307;SDS011;74486;52.070;5.128;2024-01-30T01:57:51;22.08;;;10.45;;
84307;SDS011;74486;52.070;5.128;2024-01-30T02:00:18;17.88;;;10.25;;
84307;SDS011;74486;52.070;5.128;2024-01-30T02:02:45;22.10;;;10.65;;
84307;SDS011;74486;52.070;5.128;2024-01-30T02:05:11;20.30;;;9.98;;
84307;SDS011;74486;52.070;5.128;2024-01-30T02:07:36;18.90;;;10.57;;
84307;SDS011;74486;52.070;5.128;2024-01-30T02:10:02;20.33;;;10.98;;
84307;SDS011;74486;52.070;5.128;2024-01-30T02:12:28;19.45;;;11.15;;
84307;SDS011;74486;52.070;5.128;2024-01-30T02:14:55;19.38;;;11.07;;
84307;SDS011;74486;52.070;5.128;2024-01-30T02:17:22;19.88;;;10.40;;
84307;SDS011;74486;52.070;5.128;2024-01-30T02:19:47;19.55;;;10.55;;
84307;SDS011;74486;52.070;5.128;2024-01-30T02:22:14;19.23;;;10.05;;
84307;SDS011;74486;52.070;5.128;2024-01-30T02:24:39;17.33;;;10.20;;
84307;SDS011;74486;52.070;5.128;2024-01-30T02:27:05;18.02;;;10.43;;
84307;SDS011;74486;52.070;5.128;2024-01-30T02:29:30;21.13;;;10.68;;
84307;SDS011;74486;52.070;5.128;2024-01-30T02:31:56;18.73;;;10.75;;
84307;SDS011;74486;52.070;5.128;2024-01-30T02:34:21;21.73;;;12.02;;
84307;SDS011;74486;52.070;5.128;2024-01-30T02:36:47;22.52;;;11.10;;
84307;SDS011;74486;52.070;5.128;2024-01-30T02:39:14;19.25;;;9.95;;
84307;SDS011;74486;52.070;5.128;2024-01-30T02:41:39;20.23;;;10.70;;
84307;SDS011;74486;52.070;5.128;2024-01-30T02:44:04;20.85;;;10.38;;
84307;SDS011;74486;52.070;5.128;2024-01-30T02:46:30;21.13;;;9.98;;
84307;SDS011;74486;52.070;5.128;2024-01-30T02:48:55;18.85;;;10.80;;
84307;SDS011;74486;52.070;5.128;2024-01-30T02:51:21;20.63;;;10.45;;
84307;SDS011;74486;52.070;5.128;2024-01-30T02:53:46;19.75;;;10.10;;
84307;SDS011;74486;52.070;5.128;2024-01-30T02:56:13;21.15;;;10.02;;
84307;SDS011;74486;52.070;5.128;2024-01-30T02:58:40;18.67;;;10.18;;
84307;SDS011;74486;52.070;5.128;2024-01-30T03:01:05;20.98;;;11.48;;
84307;SDS011;74486;52.070;5.128;2024-01-30T03:03:30;20.80;;;11.27;;
84307;SDS011;74486;52.070;5.128;2024-01-30T03:05:56;22.13;;;11.20;;
84307;SDS011;74486;52.070;5.128;2024-01-30T03:08:21;21.25;;;11.40;;
84307;SDS011;74486;52.070;5.128;2024-01-30T03:10:47;20.50;;;10.05;;
84307;SDS011;74486;52.070;5.128;2024-01-30T03:13:14;20.20;;;10.63;;
84307;SDS011;74486;52.070;5.128;2024-01-30T03:15:39;23.63;;;11.38;;
84307;SDS011;74486;52.070;5.128;2024-01-30T03:18:05;18.65;;;10.15;;
84307;SDS011;74486;52.070;5.128;2024-01-30T03:20:30;20.25;;;10.52;;
84307;SDS011;74486;52.070;5.128;2024-01-30T03:22:56;18.48;;;10.35;;
84307;SDS011;74486;52.070;5.128;2024-01-30T03:25:21;19.80;;;10.90;;
84307;SDS011;74486;52.070;5.128;2024-01-30T03:27:47;21.13;;;9.82;;
84307;SDS011;74486;52.070;5.128;2024-01-30T03:30:14;21.70;;;10.88;;
84307;SDS011;74486;52.070;5.128;2024-01-30T03:32:39;15.40;;;9.15;;
84307;SDS011;74486;52.070;5.128;2024-01-30T03:35:05;27.80;;;11.43;;
84307;SDS011;74486;52.070;5.128;2024-01-30T03:37:31;19.27;;;10.32;;
84307;SDS011;74486;52.070;5.128;2024-01-30T03:39:56;19.80;;;10.55;;
84307;SDS011;74486;52.070;5.128;2024-01-30T03:42:22;21.23;;;10.02;;
84307;SDS011;74486;52.070;5.128;2024-01-30T03:44:47;17.92;;;9.45;;
84307;SDS011;74486;52.070;5.128;2024-01-30T03:47:14;21.92;;;10.40;;
84307;SDS011;74486;52.070;5.128;2024-01-30T03:49:40;18.50;;;9.82;;
84307;SDS011;74486;52.070;5.128;2024-01-30T03:52:05;20.35;;;10.05;;
84307;SDS011;74486;52.070;5.128;2024-01-30T03:54:31;16.63;;;9.68;;
84307;SDS011;74486;52.070;5.128;2024-01-30T03:56:56;16.60;;;9.70;;
84307;SDS011;74486;52.070;5.128;2024-01-30T03:59:21;18.30;;;9.70;;
84307;SDS011;74486;52.070;5.128;2024-01-30T04:01:47;19.35;;;10.27;;
84307;SDS011;74486;52.070;5.128;2024-01-30T04:04:14;16.30;;;8.85;;
84307;SDS011;74486;52.070;5.128;2024-01-30T04:06:39;17.67;;;9.65;;
84307;SDS011;74486;52.070;5.128;2024-01-30T04:09:04;16.55;;;9.20;;
84307;SDS011;74486;52.070;5.128;2024-01-30T04:11:30;15.05;;;8.88;;
84307;SDS011;74486;52.070;5.128;2024-01-30T04:13:55;17.42;;;9.93;;
84307;SDS011;74486;52.070;5.128;2024-01-30T04:16:21;17.00;;;9.40;;
84307;SDS011;74486;52.070;5.128;2024-01-30T04:18:47;17.35;;;8.57;;
84307;SDS011;74486;52.070;5.128;2024-01-30T04:21:14;16.45;;;8.73;;
84307;SDS011;74486;52.070;5.128;2024-01-30T04:23:39;18.20;;;10.00;;
84307;SDS011;74486;52.070;5.128;2024-01-30T04:26:05;19.58;;;9.15;;
84307;SDS011;74486;52.070;5.128;2024-01-30T04:28:31;17.23;;;8.57;;
84307;SDS011;74486;52.070;5.128;2024-01-30T04:30:56;16.63;;;9.02;;
84307;SDS011;74486;52.070;5.128;2024-01-30T04:33:21;15.57;;;9.02;;
84307;SDS011;74486;52.070;5.128;2024-01-30T04:35:47;15.68;;;8.82;;
84307;SDS011;74486;52.070;5.128;2024-01-30T04:38:14;16.58;;;8.90;;
84307;SDS011;74486;52.070;5.128;2024-01-30T04:40:39;16.77;;;8.80;;
84307;SDS011;74486;52.070;5.128;2024-01-30T04:43:05;17.52;;;8.68;;
84307;SDS011;74486;52.070;5.128;2024-01-30T04:45:30;19.98;;;9.50;;
84307;SDS011;74486;52.070;5.128;2024-01-30T04:47:56;16.90;;;7.80;;
84307;SDS011;74486;52.070;5.128;2024-01-30T04:50:21;13.85;;;7.95;;
84307;SDS011;74486;52.070;5.128;2024-01-30T04:52:46;15.95;;;8.93;;
84307;SDS011;74486;52.070;5.128;2024-01-30T04:55:13;14.20;;;8.00;;
84307;SDS011;74486;52.070;5.128;2024-01-30T04:57:39;14.52;;;8.52;;
84307;SDS011;74486;52.070;5.128;2024-01-30T05:00:05;16.38;;;8.55;;
84307;SDS011;74486;52.070;5.128;2024-01-30T05:02:31;13.27;;;8.02;;
84307;SDS011;74486;52.070;5.128;2024-01-30T05:04:57;15.90;;;8.32;;
84307;SDS011;74486;52.070;5.128;2024-01-30T05:07:22;15.48;;;7.40;;
84307;SDS011;74486;52.070;5.128;2024-01-30T05:09:49;18.58;;;8.27;;
84307;SDS011;74486;52.070;5.128;2024-01-30T05:12:16;13.55;;;7.47;;
84307;SDS011;74486;52.070;5.128;2024-01-30T05:14:41;13.80;;;7.28;;
84307;SDS011;74486;52.070;5.128;2024-01-30T05:17:07;13.63;;;8.07;;
84307;SDS011;74486;52.070;5.128;2024-01-30T05:19:32;15.45;;;7.85;;
84307;SDS011;74486;52.070;5.128;2024-01-30T05:21:57;14.07;;;7.72;;
84307;SDS011;74486;52.070;5.128;2024-01-30T05:24:23;16.38;;;7.72;;
84307;SDS011;74486;52.070;5.128;2024-01-30T05:26:48;13.25;;;8.10;;
84307;SDS011;74486;52.070;5.128;2024-01-30T05:29:15;14.23;;;8.00;;
84307;SDS011;74486;52.070;5.128;2024-01-30T05:31:40;15.00;;;7.38;;
84307;SDS011;74486;52.070;5.128;2024-01-30T05:34:06;15.30;;;7.85;;
84307;SDS011;74486;52.070;5.128;2024-01-30T05:36:31;13.00;;;7.68;;
84307;SDS011;74486;52.070;5.128;2024-01-30T05:38:57;14.23;;;8.02;;
84307;SDS011;74486;52.070;5.128;2024-01-30T05:41:22;13.73;;;7.60;;
84307;SDS011;74486;52.070;5.128;2024-01-30T05:43:48;13.65;;;7.32;;
84307;SDS011;74486;52.070;5.128;2024-01-30T05:46:14;13.70;;;7.60;;
84307;SDS011;74486;52.070;5.128;2024-01-30T05:48:40;14.02;;;7.55;;
84307;SDS011;74486;52.070;5.128;2024-01-30T05:51:06;16.02;;;7.22;;
84307;SDS011;74486;52.070;5.128;2024-01-30T05:53:32;12.13;;;7.07;;
84307;SDS011;74486;52.070;5.128;2024-01-30T05:55:57;14.65;;;7.47;;
84307;SDS011;74486;52.070;5.128;2024-01-30T05:58:23;14.25;;;7.35;;
84307;SDS011;74486;52.070;5.128;2024-01-30T06:00:48;13.57;;;7.55;;
84307;SDS011;74486;52.070;5.128;2024-01-30T06:03:15;13.60;;;6.85;;
84307;SDS011;74486;52.070;5.128;2024-01-30T06:05:40;15.10;;;7.63;;
84307;SDS011;74486;52.070;5.128;2024-01-30T06:08:06;12.27;;;6.88;;
84307;SDS011;74486;52.070;5.128;2024-01-30T06:10:32;11.32;;;6.55;;
84307;SDS011;74486;52.070;5.128;2024-01-30T06:12:57;11.77;;;6.72;;
84307;SDS011;74486;52.070;5.128;2024-01-30T06:15:22;13.90;;;6.53;;
84307;SDS011;74486;52.070;5.128;2024-01-30T06:17:48;12.40;;;6.78;;
84307;SDS011;74486;52.070;5.128;2024-01-30T06:20:15;14.55;;;6.45;;
84307;SDS011;74486;52.070;5.128;2024-01-30T06:22:41;12.45;;;6.15;;
84307;SDS011;74486;52.070;5.128;2024-01-30T06:25:06;14.55;;;6.63;;
84307;SDS011;74486;52.070;5.128;2024-01-30T06:27:32;12.63;;;6.93;;
84307;SDS011;74486;52.070;5.128;2024-01-30T06:29:58;13.10;;;7.22;;
84307;SDS011;74486;52.070;5.128;2024-01-30T06:32:23;12.38;;;7.10;;
84307;SDS011;74486;52.070;5.128;2024-01-30T06:34:49;12.07;;;7.00;;
84307;SDS011;74486;52.070;5.128;2024-01-30T06:37:15;12.52;;;6.40;;
84307;SDS011;74486;52.070;5.128;2024-01-30T06:39:41;11.75;;;6.32;;
84307;SDS011;74486;52.070;5.128;2024-01-30T06:42:06;11.93;;;6.57;;
84307;SDS011;74486;52.070;5.128;2024-01-30T06:44:32;12.90;;;6.90;;
84307;SDS011;74486;52.070;5.128;2024-01-30T06:46:57;12.98;;;6.90;;
84307;SDS011;74486;52.070;5.128;2024-01-30T06:49:23;12.30;;;6.57;;
84307;SDS011;74486;52.070;5.128;2024-01-30T06:51:48;12.98;;;6.85;;
84307;SDS011;74486;52.070;5.128;2024-01-30T06:54:15;11.65;;;6.82;;
84307;SDS011;74486;52.070;5.128;2024-01-30T06:56:40;11.77;;;6.00;;
84307;SDS011;74486;52.070;5.128;2024-01-30T06:59:06;12.82;;;5.57;;
84307;SDS011;74486;52.070;5.128;2024-01-30T07:01:31;11.52;;;6.03;;
84307;SDS011;74486;52.070;5.128;2024-01-30T07:03:57;12.70;;;7.18;;
84307;SDS011;74486;52.070;5.128;2024-01-30T07:06:22;12.68;;;6.60;;
84307;SDS011;74486;52.070;5.128;2024-01-30T07:08:48;11.90;;;6.20;;
84307;SDS011;74486;52.070;5.128;2024-01-30T07:11:19;13.18;;;7.22;;
84307;SDS011;74486;52.070;5.128;2024-01-30T07:13:45;11.70;;;5.68;;
84307;SDS011;74486;52.070;5.128;2024-01-30T07:16:10;13.00;;;6.05;;
84307;SDS011;74486;52.070;5.128;2024-01-30T07:18:36;11.75;;;6.68;;
84307;SDS011;74486;52.070;5.128;2024-01-30T07:21:01;9.70;;;5.68;;
84307;SDS011;74486;52.070;5.128;2024-01-30T07:23:26;14.98;;;6.45;;
84307;SDS011;74486;52.070;5.128;2024-01-30T07:25:52;11.65;;;6.50;;
84307;SDS011;74486;52.070;5.128;2024-01-30T07:28:19;9.38;;;5.75;;
84307;SDS011;74486;52.070;5.128;2024-01-30T07:30:44;13.63;;;6.13;;
84307;SDS011;74486;52.070;5.128;2024-01-30T07:33:10;11.43;;;5.82;;
84307;SDS011;74486;52.070;5.128;2024-01-30T07:35:35;13.38;;;6.10;;
84307;SDS011;74486;52.070;5.128;2024-01-30T07:38:01;12.65;;;6.40;;
84307;SDS011;74486;52.070;5.128;2024-01-30T07:40:26;14.32;;;6.60;;
84307;SDS011;74486;52.070;5.128;2024-01-30T07:42:53;14.55;;;6.40;;
84307;SDS011;74486;52.070;5.128;2024-01-30T07:45:20;11.05;;;5.95;;
84307;SDS011;74486;52.070;5.128;2024-01-30T07:47:45;14.82;;;6.88;;
84307;SDS011;74486;52.070;5.128;2024-01-30T07:50:11;14.00;;;6.50;;
84307;SDS011;74486;52.070;5.128;2024-01-30T07:52:36;10.07;;;5.88;;
84307;SDS011;74486;52.070;5.128;2024-01-30T07:55:02;12.43;;;6.30;;
84307;SDS011;74486;52.070;5.128;2024-01-30T07:57:27;12.88;;;6.18;;
84307;SDS011;74486;52.070;5.128;2024-01-30T07:59:53;10.50;;;5.75;;
84307;SDS011;74486;52.070;5.128;2024-01-30T08:02:19;12.70;;;6.18;;
84307;SDS011;74486;52.070;5.128;2024-01-30T08:04:45;11.80;;;6.43;;
84307;SDS011;74486;52.070;5.128;2024-01-30T08:07:10;10.50;;;5.90;;
84307;SDS011;74486;52.070;5.128;2024-01-30T08:09:36;9.73;;;6.22;;
84307;SDS011;74486;52.070;5.128;2024-01-30T08:12:01;14.80;;;6.22;;
84307;SDS011;74486;52.070;5.128;2024-01-30T08:14:27;11.70;;;6.70;;
84307;SDS011;74486;52.070;5.128;2024-01-30T08:16:52;13.70;;;6.07;;
84307;SDS011;74486;52.070;5.128;2024-01-30T08:19:19;13.32;;;6.32;;
84307;SDS011;74486;52.070;5.128;2024-01-30T08:21:45;12.98;;;6.40;;
84307;SDS011;74486;52.070;5.128;2024-01-30T08:24:10;14.40;;;7.07;;
84307;SDS011;74486;52.070;5.128;2024-01-30T08:26:35;13.07;;;6.60;;
84307;SDS011;74486;52.070;5.128;2024-01-30T08:29:01;12.52;;;6.20;;
84307;SDS011;74486;52.070;5.128;2024-01-30T08:31:27;10.95;;;6.50;;
84307;SDS011;74486;52.070;5.128;2024-01-30T08:33:52;14.75;;;6.80;;
84307;SDS011;74486;52.070;5.128;2024-01-30T08:36:19;15.85;;;5.95;;
84307;SDS011;74486;52.070;5.128;2024-01-30T08:38:45;16.90;;;6.57;;
84307;SDS011;74486;52.070;5.128;2024-01-30T08:41:10;10.20;;;5.55;;
84307;SDS011;74486;52.070;5.128;2024-01-30T08:43:36;13.70;;;6.95;;
84307;SDS011;74486;52.070;5.128;2024-01-30T08:46:01;15.13;;;6.28;;
84307;SDS011;74486;52.070;5.128;2024-01-30T08:48:27;17.50;;;7.00;;
84307;SDS011;74486;52.070;5.128;2024-01-30T08:50:53;12.43;;;6.35;;
84307;SDS011;74486;52.070;5.128;2024-01-30T08:53:19;11.77;;;6.78;;
84307;SDS011;74486;52.070;5.128;2024-01-30T08:55:45;14.38;;;6.43;;
84307;SDS011;74486;52.070;5.128;2024-01-30T08:58:10;10.43;;;5.95;;
84307;SDS011;74486;52.070;5.128;2024-01-30T09:00:36;13.38;;;6.72;;
84307;SDS011;74486;52.070;5.128;2024-01-30T09:03:02;14.05;;;6.47;;
84307;SDS011;74486;52.070;5.128;2024-01-30T09:05:28;14.75;;;6.72;;
84307;SDS011;74486;52.070;5.128;2024-01-30T09:07:53;13.10;;;5.72;;
84307;SDS011;74486;52.070;5.128;2024-01-30T09:10:20;11.00;;;6.25;;
84307;SDS011;74486;52.070;5.128;2024-01-30T09:12:46;11.60;;;5.82;;
84307;SDS011;74486;52.070;5.128;2024-01-30T09:15:11;12.63;;;6.28;;
84307;SDS011;74486;52.070;5.128;2024-01-30T09:17:36;16.33;;;6.15;;
84307;SDS011;74486;52.070;5.128;2024-01-30T09:20:02;12.77;;;6.63;;
84307;SDS011;74486;52.070;5.128;2024-01-30T09:22:28;15.98;;;6.55;;
84307;SDS011;74486;52.070;5.128;2024-01-30T09:24:53;13.02;;;6.70;;
84307;SDS011;74486;52.070;5.128;2024-01-30T09:27:20;12.80;;;6.63;;
84307;SDS011;74486;52.070;5.128;2024-01-30T09:29:46;13.30;;;6.90;;
84307;SDS011;74486;52.070;5.128;2024-01-30T09:32:11;12.45;;;6.55;;
84307;SDS011;74486;52.070;5.128;2024-01-30T09:34:37;11.43;;;6.68;;
84307;SDS011;74486;52.070;5.128;2024-01-30T09:37:02;12.70;;;6.82;;
84307;SDS011;74486;52.070;5.128;2024-01-30T09:39:28;13.55;;;6.07;;
84307;SDS011;74486;52.070;5.128;2024-01-30T09:41:55;13.35;;;6.20;;
84307;SDS011;74486;52.070;5.128;2024-01-30T09:44:27;10.95;;;6.15;;
84307;SDS011;74486;52.070;5.128;2024-01-30T09:46:54;12.80;;;6.78;;
84307;SDS011;74486;52.070;5.128;2024-01-30T09:49:20;14.07;;;6.78;;
84307;SDS011;74486;52.070;5.128;2024-01-30T09:51:47;11.75;;;5.82;;
84307;SDS011;74486;52.070;5.128;2024-01-30T09:54:13;12.75;;;6.32;;
84307;SDS011;74486;52.070;5.128;2024-01-30T09:56:39;15.60;;;6.63;;
84307;SDS011;74486;52.070;5.128;2024-01-30T09:59:04;13.35;;;6.65;;
84307;SDS011;74486;52.070;5.128;2024-01-30T10:01:31;13.43;;;7.13;;
84307;SDS011;74486;52.070;5.128;2024-01-30T10:04:00;14.00;;;5.95;;
84307;SDS011;74486;52.070;5.128;2024-01-30T10:06:26;13.45;;;6.40;;
84307;SDS011;74486;52.070;5.128;2024-01-30T10:08:52;13.95;;;5.78;;
84307;SDS011;74486;52.070;5.128;2024-01-30T10:11:18;16.92;;;6.15;;
84307;SDS011;74486;52.070;5.128;2024-01-30T10:13:43;12.15;;;6.10;;
84307;SDS011;74486;52.070;5.128;2024-01-30T10:16:09;13.23;;;6.15;;
84307;SDS011;74486;52.070;5.128;2024-01-30T10:18:36;10.77;;;5.55;;
84307;SDS011;74486;52.070;5.128;2024-01-30T10:21:01;17.30;;;6.65;;
84307;SDS011;74486;52.070;5.128;2024-01-30T10:23:27;13.50;;;5.90;;
84307;SDS011;74486;52.070;5.128;2024-01-30T10:25:53;12.35;;;6.25;;
84307;SDS011;74486;52.070;5.128;2024-01-30T10:28:19;15.90;;;6.40;;
84307;SDS011;74486;52.070;5.128;2024-01-30T10:30:44;14.02;;;5.55;;
84307;SDS011;74486;52.070;5.128;2024-01-30T10:33:10;10.80;;;6.35;;
84307;SDS011;74486;52.070;5.128;2024-01-30T10:35:37;14.77;;;5.80;;
84307;SDS011;74486;52.070;5.128;2024-01-30T10:38:02;10.80;;;5.90;;
84307;SDS011;74486;52.070;5.128;2024-01-30T10:42:56;10.55;;;5.82;;
84307;SDS011;74486;52.070;5.128;2024-01-30T10:45:25;10.40;;;5.00;;
84307;SDS011;74486;52.070;5.128;2024-01-30T10:47:52;8.57;;;4.65;;
84307;SDS011;74486;52.070;5.128;2024-01-30T10:50:19;9.68;;;5.00;;
84307;SDS011;74486;52.070;5.128;2024-01-30T10:52:46;15.88;;;4.50;;
84307;SDS011;74486;52.070;5.128;2024-01-30T10:55:12;6.97;;;3.47;;
84307;SDS011;74486;52.070;5.128;2024-01-30T11:00:06;7.50;;;3.80;;
84307;SDS011;74486;52.070;5.128;2024-01-30T11:04:59;6.70;;;3.15;;
84307;SDS011;74486;52.070;5.128;2024-01-30T11:07:25;8.40;;;2.72;;
84307;SDS011;74486;52.070;5.128;2024-01-30T11:09:54;5.53;;;2.20;;
84307;SDS011;74486;52.070;5.128;2024-01-30T11:12:25;9.45;;;3.30;;
84307;SDS011;74486;52.070;5.128;2024-01-30T11:15:01;5.60;;;2.50;;
84307;SDS011;74486;52.070;5.128;2024-01-30T11:17:27;6.32;;;2.47;;
84307;SDS011;74486;52.070;5.128;2024-01-30T11:19:53;2.88;;;2.10;;
84307;SDS011;74486;52.070;5.128;2024-01-30T11:22:20;7.85;;;2.15;;
84307;SDS011;74486;52.070;5.128;2024-01-30T11:24:45;3.30;;;1.45;;
84307;SDS011;74486;52.070;5.128;2024-01-30T11:27:13;3.60;;;1.30;;
84307;SDS011;74486;52.070;5.128;2024-01-30T11:29:40;5.20;;;1.88;;
84307;SDS011;74486;52.070;5.128;2024-01-30T11:32:05;7.75;;;1.50;;
84307;SDS011;74486;52.070;5.128;2024-01-30T11:34:32;5.85;;;1.48;;
84307;SDS011;74486;52.070;5.128;2024-01-30T11:36:58;3.95;;;1.35;;
84307;SDS011;74486;52.070;5.128;2024-01-30T11:39:28;3.75;;;1.30;;
84307;SDS011;74486;52.070;5.128;2024-01-30T11:41:55;3.45;;;1.52;;
84307;SDS011;74486;52.070;5.128;2024-01-30T11:44:22;4.35;;;1.10;;
84307;SDS011;74486;52.070;5.128;2024-01-30T11:46:48;3.20;;;1.40;;
84307;SDS011;74486;52.070;5.128;2024-01-30T11:49:14;4.38;;;1.52;;
84307;SDS011;74486;52.070;5.128;2024-01-30T11:51:40;3.08;;;1.70;;
84307;SDS011;74486;52.070;5.128;2024-01-30T11:54:07;4.93;;;1.42;;
84307;SDS011;74486;52.070;5.128;2024-01-30T11:56:32;3.47;;;1.83;;
84307;SDS011;74486;52.070;5.128;2024-01-30T11:58:58;4.72;;;1.50;;
84307;SDS011;74486;52.070;5.128;2024-01-30T12:01:24;3.13;;;2.05;;
84307;SDS011;74486;52.070;5.128;2024-01-30T12:03:50;4.75;;;1.55;;
84307;SDS011;74486;52.070;5.128;2024-01-30T12:06:16;6.07;;;1.60;;
84307;SDS011;74486;52.070;5.128;2024-01-30T12:08:41;7.15;;;2.20;;
84307;SDS011;74486;52.070;5.128;2024-01-30T12:11:07;7.82;;;1.90;;
84307;SDS011;74486;52.070;5.128;2024-01-30T12:13:32;3.42;;;1.95;;
84307;SDS011;74486;52.070;5.128;2024-01-30T12:15:58;6.00;;;1.98;;
84307;SDS011;74486;52.070;5.128;2024-01-30T12:18:25;5.75;;;2.10;;
84307;SDS011;74486;52.070;5.128;2024-01-30T12:20:57;4.38;;;1.73;;
84307;SDS011;74486;52.070;5.128;2024-01-30T12:23:23;4.30;;;1.60;;
84307;SDS011;74486;52.070;5.128;2024-01-30T12:25:49;6.20;;;2.03;;
84307;SDS011;74486;52.070;5.128;2024-01-30T12:28:14;3.30;;;1.40;;
84307;SDS011;74486;52.070;5.128;2024-01-30T12:30:40;5.97;;;1.98;;
84307;SDS011;74486;52.070;5.128;2024-01-30T12:33:05;7.40;;;2.33;;
84307;SDS011;74486;52.070;5.128;2024-01-30T12:35:32;3.47;;;1.45;;
84307;SDS011;74486;52.070;5.128;2024-01-30T12:37:57;3.30;;;1.50;;
84307;SDS011;74486;52.070;5.128;2024-01-30T12:40:23;4.85;;;2.03;;
84307;SDS011;74486;52.070;5.128;2024-01-30T12:42:49;3.80;;;2.05;;
84307;SDS011;74486;52.070;5.128;2024-01-30T12:45:14;3.58;;;1.55;;
84307;SDS011;74486;52.070;5.128;2024-01-30T12:47:39;4.35;;;1.20;;
84307;SDS011;74486;52.070;5.128;2024-01-30T12:50:06;2.90;;;1.25;;
84307;SDS011;74486;52.070;5.128;2024-01-30T12:52:33;3.67;;;1.40;;
84307;SDS011;74486;52.070;5.128;2024-01-30T12:55:00;2.70;;;0.70;;
84307;SDS011;74486;52.070;5.128;2024-01-30T12:57:25;2.45;;;0.90;;
84307;SDS011;74486;52.070;5.128;2024-01-30T12:59:51;4.45;;;0.77;;
84307;SDS011;74486;52.070;5.128;2024-01-30T13:02:16;3.33;;;0.50;;
84307;SDS011;74486;52.070;5.128;2024-01-30T13:04:42;2.58;;;0.93;;
84307;SDS011;74486;52.070;5.128;2024-01-30T13:07:08;2.85;;;0.90;;
84307;SDS011;74486;52.070;5.128;2024-01-30T13:09:35;2.15;;;0.63;;
84307;SDS011;74486;52.070;5.128;2024-01-30T13:12:01;1.88;;;0.70;;
84307;SDS011;74486;52.070;5.128;2024-01-30T13:14:26;1.27;;;0.50;;
84307;SDS011;74486;52.070;5.128;2024-01-30T13:16:52;1.65;;;0.55;;
84307;SDS011;74486;52.070;5.128;2024-01-30T13:19:17;3.92;;;1.55;;
84307;SDS011;74486;52.070;5.128;2024-01-30T13:21:43;4.65;;;0.75;;
84307;SDS011;74486;52.070;5.128;2024-01-30T13:24:08;2.95;;;1.10;;
84307;SDS011;74486;52.070;5.128;2024-01-30T13:26:35;2.42;;;0.70;;
84307;SDS011;74486;52.070;5.128;2024-01-30T13:29:03;1.42;;;0.60;;
84307;SDS011;74486;52.070;5.128;2024-01-30T13:31:29;2.92;;;0.70;;
84307;SDS011;74486;52.070;5.128;2024-01-30T13:33:54;2.05;;;0.60;;
84307;SDS011;74486;52.070;5.128;2024-01-30T13:36:20;3.47;;;0.65;;
84307;SDS011;74486;52.070;5.128;2024-01-30T13:38:46;2.67;;;0.90;;
84307;SDS011;74486;52.070;5.128;2024-01-30T13:41:12;2.97;;;0.43;;
84307;SDS011;74486;52.070;5.128;2024-01-30T13:43:39;3.88;;;0.80;;
84307;SDS011;74486;52.070;5.128;2024-01-30T13:46:04;2.30;;;0.85;;
84307;SDS011;74486;52.070;5.128;2024-01-30T13:48:30;5.97;;;1.20;;
84307;SDS011;74486;52.070;5.128;2024-01-30T13:50:56;4.97;;;0.93;;
84307;SDS011;74486;52.070;5.128;2024-01-30T13:53:22;2.33;;;0.70;;
84307;SDS011;74486;52.070;5.128;2024-01-30T13:55:47;2.40;;;0.95;;
84307;SDS011;74486;52.070;5.128;2024-01-30T13:58:13;5.35;;;0.93;;
84307;SDS011;74486;52.070;5.128;2024-01-30T14:00:40;6.75;;;1.02;;
84307;SDS011;74486;52.070;5.128;2024-01-30T14:03:05;3.97;;;0.95;;
84307;SDS011;74486;52.070;5.128;2024-01-30T14:05:31;3.85;;;0.73;;
84307;SDS011;74486;52.070;5.128;2024-01-30T14:07:56;3.88;;;1.25;;
84307;SDS011;74486;52.070;5.128;2024-01-30T14:10:22;8.68;;;1.10;;
84307;SDS011;74486;52.070;5.128;2024-01-30T14:12:48;8.52;;;1.50;;
84307;SDS011;74486;52.070;5.128;2024-01-30T14:15:13;4.05;;;1.02;;
84307;SDS011;74486;52.070;5.128;2024-01-30T14:17:41;7.00;;;1.02;;
84307;SDS011;74486;52.070;5.128;2024-01-30T14:20:07;6.65;;;0.98;;
84307;SDS011;74486;52.070;5.128;2024-01-30T14:22:33;2.75;;;1.13;;
84307;SDS011;74486;52.070;5.128;2024-01-30T14:24:58;7.10;;;1.73;;
84307;SDS011;74486;52.070;5.128;2024-01-30T14:27:24;7.38;;;1.30;;
84307;SDS011;74486;52.070;5.128;2024-01-30T14:29:49;5.22;;;2.08;;
84307;SDS011;74486;52.070;5.128;2024-01-30T14:32:15;5.85;;;1.52;;
84307;SDS011;74486;52.070;5.128;2024-01-30T14:34:41;7.35;;;2.05;;